createdAt,value
2019-05-18T05:51:04.536Z,17.67
2019-05-18T05:53:35.838Z,17.81
2019-05-18T05:56:06.929Z,18.02
2019-05-18T06:01:53.397Z,18.13
2019-05-18T06:04:24.429Z,18.24
2019-05-18T06:06:55.472Z,18.42
2019-05-18T06:09:26.468Z,18.81
2019-05-18T06:11:57.556Z,18.90
2019-05-18T06:14:28.576Z,19.16
2019-05-18T06:16:59.548Z,19.13
2019-05-18T06:19:30.498Z,19.23
2019-05-18T06:22:01.532Z,19.55
2019-05-18T06:24:32.558Z,19.55
2019-05-18T06:27:04.587Z,19.83
2019-05-18T06:29:35.678Z,19.72
2019-05-18T06:32:06.765Z,19.72
2019-05-18T06:34:37.785Z,20.01
2019-05-18T06:37:08.817Z,19.97
2019-05-18T06:39:40.855Z,20.01
2019-05-18T06:42:11.886Z,20.32
2019-05-18T06:44:42.828Z,20.43
2019-05-18T06:47:13.859Z,20.92
2019-05-18T06:49:44.886Z,21.08
2019-05-18T06:52:15.929Z,21.46
2019-05-18T06:54:46.959Z,21.49
2019-05-18T06:57:17.977Z,21.62
2019-05-18T06:59:49.517Z,21.96
2019-05-18T07:02:20.532Z,22.17
2019-05-18T07:04:51.555Z,22.10
2019-05-18T07:07:22.569Z,22.31
2019-05-18T07:09:53.533Z,22.30
2019-05-18T07:12:24.618Z,22.41
2019-05-18T07:14:55.662Z,22.45
2019-05-18T07:17:26.749Z,22.36
2019-05-18T07:19:57.768Z,22.31
2019-05-18T07:22:28.789Z,22.42
2019-05-18T07:24:59.879Z,22.77
2019-05-18T07:27:30.921Z,23.15
2019-05-18T07:30:01.954Z,21.99
2019-05-18T07:32:32.948Z,21.98
2019-05-18T07:35:04.167Z,21.63
2019-05-18T07:37:35.910Z,21.65
2019-05-18T07:40:08.303Z,21.74
2019-05-18T07:42:39.731Z,21.65
2019-05-18T07:45:11.074Z,21.91
2019-05-18T07:47:42.101Z,21.58
2019-05-18T07:50:13.443Z,21.89
2019-05-18T07:52:44.535Z,22.05
2019-05-18T07:55:15.674Z,22.13
2019-05-18T07:57:47.410Z,22.37
2019-05-18T08:00:18.604Z,22.75
2019-05-18T08:02:49.804Z,23.34
2019-05-18T08:05:21.610Z,23.26
2019-05-18T08:07:52.635Z,23.40
2019-05-18T08:10:26.575Z,23.68
2019-05-18T08:12:57.599Z,24.58
2019-05-18T08:15:28.664Z,24.89
2019-05-18T08:20:29.411Z,25.24
2019-05-18T08:23:00.441Z,25.56
2019-05-18T08:25:31.412Z,25.91
2019-05-18T08:28:02.506Z,25.90
2019-05-18T08:30:33.533Z,25.66
2019-05-18T08:33:04.777Z,25.76
2019-05-18T08:35:35.766Z,26.33
2019-05-18T08:38:06.811Z,27.05
2019-05-18T08:40:37.832Z,27.28
2019-05-18T08:43:08.849Z,26.70
2019-05-18T08:45:40.859Z,26.59
2019-05-18T08:48:11.909Z,26.59
2019-05-18T08:50:43.048Z,26.93
2019-05-18T08:53:13.995Z,27.51
2019-05-18T08:55:45.023Z,27.72
2019-05-18T08:58:16.123Z,27.79
2019-05-18T09:00:47.154Z,27.14
2019-05-18T09:03:18.215Z,27.46
2019-05-18T09:05:49.269Z,27.36
2019-05-18T09:08:20.289Z,27.13
2019-05-18T09:10:51.365Z,27.10
2019-05-18T09:13:22.375Z,27.29
2019-05-18T09:15:53.329Z,26.70
2019-05-18T09:18:24.358Z,27.05
2019-05-18T09:20:55.482Z,27.29
2019-05-18T09:23:26.508Z,27.30
2019-05-18T09:25:57.605Z,27.45
2019-05-18T09:28:28.642Z,27.48
2019-05-18T09:30:59.686Z,27.74
2019-05-18T09:33:30.731Z,28.39
2019-05-18T09:36:01.849Z,28.54
2019-05-18T09:38:33.526Z,28.51
2019-05-18T09:41:04.745Z,28.86
2019-05-18T09:43:35.886Z,28.99
2019-05-18T09:46:06.994Z,28.61
2019-05-18T09:48:38.017Z,27.22
2019-05-18T09:51:09.046Z,27.19
2019-05-18T09:53:50.705Z,27.79
2019-05-18T09:56:12.898Z,27.33
2019-05-18T09:58:43.907Z,27.84
2019-05-18T10:01:14.973Z,27.95
2019-05-18T10:03:45.972Z,28.43
2019-05-18T10:06:17.072Z,28.69
2019-05-18T10:08:48.148Z,28.52
2019-05-18T10:11:19.170Z,28.46
2019-05-18T10:13:50.181Z,28.56
2019-05-18T10:16:21.322Z,28.37
2019-05-18T10:18:52.395Z,27.91
2019-05-18T10:21:23.496Z,27.53
2019-05-18T10:23:54.723Z,27.51
2019-05-18T10:26:25.752Z,27.83
2019-05-18T10:28:56.777Z,28.10
2019-05-18T10:31:27.781Z,28.01
2019-05-18T10:33:58.852Z,28.37
2019-05-18T10:36:29.936Z,28.65
2019-05-18T10:39:00.989Z,28.61
2019-05-18T10:41:33.343Z,28.58
2019-05-18T10:44:04.453Z,28.50
2019-05-18T10:46:35.555Z,29.38
2019-05-18T10:49:06.645Z,28.78
2019-05-18T10:51:37.743Z,28.37
2019-05-18T10:54:08.768Z,28.47
2019-05-18T10:56:39.792Z,28.29
2019-05-18T10:59:12.011Z,28.02
2019-05-18T11:01:43.995Z,28.00
2019-05-18T11:04:15.332Z,28.40
2019-05-18T11:06:46.353Z,28.57
2019-05-18T11:09:17.385Z,29.03
2019-05-18T11:11:48.541Z,29.08
2019-05-18T11:14:19.685Z,28.57
2019-05-18T11:16:50.702Z,29.61
2019-05-18T11:19:22.500Z,29.49
2019-05-18T11:21:53.644Z,29.03
2019-05-18T11:24:24.687Z,29.41
2019-05-18T11:26:55.831Z,28.39
2019-05-18T11:29:26.930Z,28.49
2019-05-18T11:31:57.928Z,29.30
2019-05-18T11:34:28.936Z,29.85
2019-05-18T11:37:03.106Z,29.95
2019-05-18T11:39:32.771Z,29.65
2019-05-18T11:42:03.817Z,30.24
2019-05-18T11:44:34.836Z,30.33
2019-05-18T11:47:05.793Z,30.66
2019-05-18T11:49:36.818Z,30.12
2019-05-18T11:52:07.897Z,30.05
2019-05-18T11:54:38.924Z,29.83
2019-05-18T11:57:09.940Z,29.83
2019-05-18T11:59:40.982Z,30.41
2019-05-18T12:02:12.057Z,30.64
2019-05-18T12:04:43.084Z,31.22
2019-05-18T12:07:14.110Z,31.93
2019-05-18T12:09:45.056Z,32.25
2019-05-18T12:12:16.178Z,32.81
2019-05-18T12:14:47.210Z,32.71
2019-05-18T12:17:18.086Z,33.28
2019-05-18T12:19:49.126Z,33.02
2019-05-18T12:22:20.079Z,33.08
2019-05-18T12:24:51.160Z,33.13
2019-05-18T12:27:22.176Z,32.68
2019-05-18T12:29:53.186Z,32.68
2019-05-18T12:32:24.132Z,33.02
2019-05-18T12:34:55.210Z,32.00
2019-05-18T12:37:26.229Z,31.98
2019-05-18T12:39:57.228Z,30.74
2019-05-18T12:42:28.259Z,31.40
2019-05-18T12:44:59.273Z,31.09
2019-05-18T12:47:30.291Z,31.10
2019-05-18T12:50:02.384Z,31.48
2019-05-18T12:52:33.456Z,31.88
2019-05-18T12:55:06.676Z,31.48
2019-05-18T12:57:37.683Z,32.25
2019-05-18T13:00:13.876Z,32.67
2019-05-18T13:02:45.878Z,33.81
2019-05-18T13:05:17.094Z,32.36
2019-05-18T13:07:48.179Z,32.78
2019-05-18T13:10:19.796Z,33.97
2019-05-18T13:12:50.794Z,33.97
2019-05-18T13:15:22.418Z,33.93
2019-05-18T13:17:53.430Z,34.09
2019-05-18T13:20:24.436Z,33.81
2019-05-18T13:22:55.443Z,33.89
2019-05-18T13:25:26.373Z,33.91
2019-05-18T13:27:57.376Z,35.16
2019-05-18T13:30:28.454Z,34.90
2019-05-18T13:32:59.466Z,34.92
2019-05-18T13:35:30.477Z,34.97
2019-05-18T13:38:01.494Z,35.46
2019-05-18T13:40:32.505Z,34.53
2019-05-18T13:43:03.548Z,35.19
2019-05-18T13:45:34.547Z,35.08
2019-05-18T13:48:05.476Z,35.27
2019-05-18T13:50:36.537Z,35.36
2019-05-18T13:53:07.562Z,34.36
2019-05-18T13:55:38.563Z,34.30
2019-05-18T13:58:09.688Z,34.01
2019-05-18T14:00:40.763Z,33.78
2019-05-18T14:03:11.844Z,33.39
2019-05-18T14:05:42.854Z,33.60
2019-05-18T14:08:15.659Z,33.43
2019-05-18T14:10:46.898Z,33.57
2019-05-18T14:13:18.082Z,33.29
2019-05-18T14:15:49.183Z,33.71
2019-05-18T14:18:20.186Z,34.05
2019-05-18T14:20:51.336Z,33.61
2019-05-18T14:23:22.399Z,32.44
2019-05-18T14:25:53.489Z,33.47
2019-05-18T14:28:24.558Z,33.99
2019-05-18T14:30:55.757Z,33.71
2019-05-18T14:33:26.768Z,33.38
2019-05-18T14:35:57.839Z,32.97
2019-05-18T14:38:28.927Z,32.04
2019-05-18T14:40:59.995Z,33.53
2019-05-18T14:43:31.003Z,33.00
2019-05-18T14:46:02.110Z,32.62
2019-05-18T14:48:33.186Z,32.28
2019-05-18T14:51:04.095Z,33.29
2019-05-18T14:53:35.111Z,33.36
2019-05-18T14:56:06.289Z,33.73
2019-05-18T14:58:37.311Z,34.94
2019-05-18T15:01:08.313Z,35.23
2019-05-18T15:03:39.331Z,34.87
2019-05-18T15:06:10.280Z,34.00
2019-05-18T15:08:41.191Z,33.29
2019-05-18T15:11:12.119Z,33.84
2019-05-18T15:13:43.318Z,32.40
2019-05-18T15:16:14.347Z,32.57
2019-05-18T15:18:45.356Z,31.02
2019-05-18T15:21:16.434Z,31.74
2019-05-18T15:23:47.375Z,33.70
2019-05-18T15:26:18.456Z,33.81
2019-05-18T15:28:49.457Z,33.77
2019-05-18T15:31:23.693Z,34.04
2019-05-18T15:33:53.203Z,34.64
2019-05-18T15:36:24.296Z,34.53
2019-05-18T15:38:55.380Z,35.15
2019-05-18T15:41:26.294Z,35.13
2019-05-18T15:43:57.308Z,36.70
2019-05-18T15:46:28.569Z,36.29
2019-05-18T15:48:59.645Z,36.94
2019-05-18T15:51:30.782Z,37.37
2019-05-18T15:54:01.799Z,36.21
2019-05-18T15:56:32.832Z,37.32
2019-05-18T15:59:03.848Z,36.71
2019-05-18T16:01:34.984Z,37.99
2019-05-18T16:04:06.713Z,37.75
2019-05-18T16:06:37.850Z,38.74
2019-05-18T16:09:09.030Z,38.48
2019-05-18T16:11:40.040Z,37.33
2019-05-18T16:14:11.109Z,38.33
2019-05-18T16:16:42.140Z,39.47
2019-05-18T16:19:13.144Z,39.50
2019-05-18T16:21:44.160Z,39.20
2019-05-18T16:24:15.191Z,38.80
2019-05-18T16:26:46.147Z,37.79
2019-05-18T16:29:17.165Z,39.13
2019-05-18T16:31:48.182Z,39.68
2019-05-18T16:34:19.267Z,40.33
2019-05-18T16:36:50.302Z,39.37
2019-05-18T16:39:21.386Z,39.74
2019-05-18T16:41:53.392Z,40.37
2019-05-18T16:44:24.503Z,40.88
2019-05-18T16:46:55.589Z,41.19
2019-05-18T16:49:26.694Z,41.00
2019-05-18T16:51:57.719Z,40.55
2019-05-18T16:54:28.758Z,40.89
2019-05-18T16:56:59.803Z,40.72
2019-05-18T16:59:30.889Z,39.80
2019-05-18T17:02:01.926Z,40.43
2019-05-18T17:04:33.033Z,40.64
2019-05-18T17:07:04.122Z,41.12
2019-05-18T17:09:35.221Z,39.94
2019-05-18T17:12:06.226Z,40.34
2019-05-18T17:14:37.305Z,40.12
2019-05-18T17:17:08.317Z,40.66
2019-05-18T17:19:39.316Z,41.36
2019-05-18T17:22:10.337Z,41.35
2019-05-18T17:24:41.357Z,39.60
2019-05-18T17:27:12.442Z,40.08
2019-05-18T17:29:43.554Z,40.11
2019-05-18T17:32:15.688Z,39.59
2019-05-18T17:34:46.772Z,39.26
2019-05-18T17:37:17.855Z,39.17
2019-05-18T17:39:48.973Z,38.90
2019-05-18T17:42:20.062Z,37.95
2019-05-18T17:44:51.137Z,38.14
2019-05-18T17:47:22.189Z,37.44
2019-05-18T17:49:53.191Z,36.15
2019-05-18T17:52:24.386Z,36.14
2019-05-18T17:54:57.354Z,35.53
2019-05-18T17:57:28.201Z,35.26
2019-05-18T17:59:59.286Z,34.59
2019-05-18T18:02:31.472Z,34.13
2019-05-18T18:05:02.558Z,33.59
2019-05-18T18:07:33.558Z,33.20
2019-05-18T18:10:05.792Z,32.44
2019-05-18T18:12:36.899Z,30.41
2019-05-18T18:15:08.988Z,28.91
2019-05-18T18:17:40.383Z,27.68
2019-05-18T18:20:11.573Z,26.70
2019-05-18T18:22:42.652Z,26.03
2019-05-18T18:25:13.875Z,24.76
2019-05-18T18:27:44.902Z,24.24
2019-05-18T18:30:16.719Z,24.24
2019-05-18T18:32:47.743Z,23.70
2019-05-18T18:35:18.773Z,23.15
2019-05-18T18:37:49.871Z,22.26
2019-05-18T18:40:20.963Z,21.84
2019-05-18T18:42:52.088Z,21.42
2019-05-18T18:45:23.123Z,21.04
2019-05-18T18:47:54.135Z,20.76
2019-05-18T18:50:25.469Z,20.56
2019-05-18T18:52:56.581Z,20.34
2019-05-18T18:55:27.703Z,20.00
2019-05-18T18:57:58.748Z,19.74
2019-05-18T19:00:29.663Z,19.54
2019-05-18T19:03:00.779Z,19.41
2019-05-18T19:05:31.813Z,19.22
2019-05-18T19:08:02.797Z,19.08
2019-05-18T19:10:33.802Z,18.93
2019-05-18T19:13:04.863Z,18.81
2019-05-18T19:15:35.895Z,18.71
2019-05-18T19:18:06.963Z,18.56
2019-05-18T19:20:38.071Z,18.38
2019-05-18T19:23:09.025Z,18.21
2019-05-18T19:25:40.061Z,17.99
2019-05-18T19:28:11.151Z,17.90
2019-05-18T19:30:42.185Z,17.75
2019-05-18T19:33:13.220Z,17.75
2019-05-18T19:35:44.235Z,17.72
2019-05-18T19:38:15.261Z,17.50
2019-05-18T19:40:46.562Z,17.34
2019-05-18T19:43:17.691Z,17.17
2019-05-18T19:45:48.714Z,16.99
2019-05-18T19:48:19.742Z,16.85
2019-05-18T19:50:50.839Z,16.80
2019-05-18T19:53:21.899Z,16.80
2019-05-18T19:55:52.926Z,16.70
2019-05-18T19:58:23.976Z,16.61
2019-05-18T20:00:55.082Z,16.59
2019-05-18T20:03:26.100Z,16.61
2019-05-18T20:05:57.200Z,16.49
2019-05-18T20:08:28.312Z,16.38
2019-05-18T20:10:59.360Z,16.36
2019-05-18T20:13:30.381Z,16.27
2019-05-18T20:16:01.449Z,16.23
2019-05-18T20:18:33.623Z,16.22
2019-05-18T20:21:04.637Z,16.23
2019-05-18T20:23:35.807Z,16.10
2019-05-18T20:26:06.841Z,15.94
2019-05-18T20:28:37.925Z,15.81
2019-05-18T20:31:09.055Z,15.64
2019-05-18T20:33:40.146Z,15.53
2019-05-18T20:36:11.251Z,15.43
2019-05-18T20:38:42.286Z,15.33
2019-05-18T20:41:13.389Z,15.47
2019-05-18T20:43:44.579Z,15.50
2019-05-18T20:46:15.664Z,15.40
2019-05-18T20:48:46.978Z,15.29
2019-05-18T20:51:18.078Z,15.16
2019-05-18T20:53:49.031Z,15.12
2019-05-18T20:56:20.053Z,15.11
2019-05-18T20:58:51.140Z,14.97
2019-05-18T21:01:22.241Z,14.97
2019-05-18T21:03:53.264Z,15.04
2019-05-18T21:06:24.301Z,15.00
2019-05-18T21:08:55.327Z,14.80
2019-05-18T21:11:26.339Z,14.80
2019-05-18T21:13:57.877Z,14.85
2019-05-18T21:16:28.974Z,14.88
2019-05-18T21:18:59.996Z,14.81
2019-05-18T21:21:31.026Z,14.81
2019-05-18T21:24:02.064Z,14.70
2019-05-18T21:26:33.074Z,14.72
2019-05-18T21:29:04.099Z,14.79
2019-05-18T21:31:35.155Z,14.88
2019-05-18T21:34:06.240Z,14.83
2019-05-18T21:36:37.448Z,14.88
2019-05-18T21:39:08.498Z,14.93
2019-05-18T21:41:39.597Z,14.86
2019-05-18T21:44:10.640Z,14.70
2019-05-18T21:46:41.722Z,14.60
2019-05-18T21:49:12.767Z,14.62
2019-05-18T21:51:43.792Z,14.45
2019-05-18T21:54:14.818Z,14.42
2019-05-18T21:56:45.835Z,14.40
2019-05-18T21:59:16.867Z,14.35
2019-05-18T22:01:49.112Z,14.32
2019-05-18T22:04:20.140Z,14.38
2019-05-18T22:06:51.161Z,14.44
2019-05-18T22:09:22.279Z,14.39
2019-05-18T22:11:53.324Z,14.46
2019-05-18T22:14:24.351Z,14.58
2019-05-18T22:16:55.445Z,14.49
2019-05-18T22:19:26.470Z,14.53
2019-05-18T22:21:57.498Z,14.55
2019-05-18T22:24:28.571Z,14.48
2019-05-18T22:27:00.595Z,14.34
2019-05-18T22:29:31.609Z,14.36
2019-05-18T22:32:02.709Z,14.38
2019-05-18T22:34:33.814Z,14.49
2019-05-18T22:37:04.758Z,14.42
2019-05-18T22:39:37.467Z,14.40
2019-05-18T22:42:08.488Z,14.38
2019-05-18T22:44:39.496Z,14.42
2019-05-18T22:47:10.589Z,14.40
2019-05-18T22:49:41.609Z,14.29
2019-05-18T22:52:12.643Z,14.35
2019-05-18T22:54:43.743Z,14.40
2019-05-18T22:57:14.695Z,14.36
2019-05-18T22:59:45.703Z,14.22
2019-05-18T23:02:16.734Z,14.23
2019-05-18T23:04:49.054Z,14.21
2019-05-18T23:07:20.103Z,14.30
2019-05-18T23:09:51.031Z,14.34
2019-05-18T23:12:22.153Z,14.38
2019-05-18T23:14:53.239Z,14.28
2019-05-18T23:17:24.361Z,14.21
2019-05-18T23:19:55.360Z,14.13
2019-05-18T23:22:26.576Z,14.03
2019-05-18T23:24:58.485Z,13.93
2019-05-18T23:27:29.507Z,13.92
2019-05-18T23:30:00.536Z,13.89
2019-05-18T23:32:32.834Z,13.85
2019-05-18T23:35:04.251Z,13.85
2019-05-18T23:37:35.273Z,13.88
2019-05-18T23:40:07.106Z,13.87
2019-05-18T23:42:38.126Z,13.79
2019-05-18T23:45:09.247Z,13.78
2019-05-18T23:47:40.290Z,13.88
2019-05-18T23:50:11.501Z,13.93
2019-05-18T23:52:42.588Z,13.87
2019-05-18T23:55:14.203Z,13.89
2019-05-18T23:57:45.242Z,13.75
